createdAt,value
2019-02-16T00:01:35.988Z,3.70
2019-02-16T00:04:06.728Z,3.70
2019-02-16T00:06:37.750Z,3.60
2019-02-16T00:09:27.671Z,3.60
2019-02-16T00:11:58.508Z,3.60
2019-02-16T00:14:29.346Z,3.60
2019-02-16T00:17:00.274Z,3.60
2019-02-16T00:19:30.927Z,3.60
2019-02-16T00:22:01.818Z,3.60
2019-02-16T00:24:34.236Z,3.60
2019-02-16T00:27:05.132Z,3.60
2019-02-16T00:29:35.994Z,3.60
2019-02-16T00:32:08.579Z,3.50
2019-02-16T00:34:39.245Z,3.50
2019-02-16T00:37:10.064Z,3.50
2019-02-16T00:39:41.372Z,3.50
2019-02-16T00:42:12.328Z,3.40
2019-02-16T00:44:44.052Z,3.40
2019-02-16T00:47:14.776Z,3.40
2019-02-16T00:49:45.641Z,3.40
2019-02-16T00:52:16.755Z,3.40
2019-02-16T00:54:48.616Z,3.40
2019-02-16T00:57:19.514Z,3.40
2019-02-16T00:59:50.255Z,3.40
2019-02-16T01:02:21.138Z,3.30
2019-02-16T01:04:51.969Z,3.30
2019-02-16T01:07:22.835Z,3.30
2019-02-16T01:09:53.826Z,3.30
2019-02-16T01:12:24.626Z,3.30
2019-02-16T01:14:57.063Z,3.20
2019-02-16T01:17:27.984Z,3.30
2019-02-16T01:19:58.870Z,3.30
2019-02-16T01:22:30.995Z,3.20
2019-02-16T01:25:01.888Z,3.20
2019-02-16T01:27:32.660Z,3.20
2019-02-16T01:30:03.864Z,3.20
2019-02-16T01:32:34.732Z,3.30
2019-02-16T01:35:05.906Z,3.20
2019-02-16T01:37:36.793Z,3.30
2019-02-16T01:40:10.691Z,3.20
2019-02-16T01:42:42.107Z,3.20
2019-02-16T01:45:13.652Z,3.20
2019-02-16T01:47:44.549Z,3.30
2019-02-16T01:50:15.400Z,3.20
2019-02-16T01:52:46.213Z,3.20
2019-02-16T01:55:17.565Z,3.20
2019-02-16T01:57:48.500Z,3.20
2019-02-16T02:00:21.166Z,3.10
2019-02-16T02:02:52.007Z,3.10
2019-02-16T02:05:22.679Z,3.10
2019-02-16T02:07:53.665Z,3.10
2019-02-16T02:10:25.113Z,3.10
2019-02-16T02:12:56.062Z,3.10
2019-02-16T02:15:27.250Z,3.00
2019-02-16T02:17:58.025Z,3.00
2019-02-16T02:20:28.897Z,3.00
2019-02-16T02:22:59.851Z,3.00
2019-02-16T02:25:30.735Z,3.10
2019-02-16T02:28:01.685Z,3.10
2019-02-16T02:30:32.443Z,3.10
2019-02-16T02:33:03.348Z,3.10
2019-02-16T02:35:34.302Z,3.10
2019-02-16T02:38:06.157Z,3.10
2019-02-16T02:40:37.043Z,3.10
2019-02-16T02:43:07.755Z,3.10
2019-02-16T02:45:40.334Z,3.10
2019-02-16T02:48:13.219Z,3.00
2019-02-16T02:50:44.369Z,2.90
2019-02-16T02:53:15.382Z,2.90
2019-02-16T02:55:46.240Z,2.90
2019-02-16T02:58:17.085Z,2.90
2019-02-16T03:00:47.903Z,2.90
2019-02-16T03:03:18.699Z,2.90
2019-02-16T03:05:49.486Z,2.90
2019-02-16T03:08:20.324Z,2.90
2019-02-16T03:10:51.251Z,2.80
2019-02-16T03:13:22.101Z,2.80
2019-02-16T03:15:52.836Z,2.80
2019-02-16T03:18:23.622Z,2.80
2019-02-16T03:20:54.533Z,2.90
2019-02-16T03:23:26.927Z,2.90
2019-02-16T03:26:37.357Z,2.90
2019-02-16T03:29:40.239Z,2.90
2019-02-16T03:32:42.719Z,2.80
2019-02-16T03:36:10.801Z,2.90
2019-02-16T03:39:07.316Z,2.90
2019-02-16T03:41:38.201Z,2.90
2019-02-16T03:44:09.119Z,2.90
2019-02-16T03:46:39.908Z,2.80
2019-02-16T03:49:10.687Z,2.80
2019-02-16T03:51:42.773Z,2.70
2019-02-16T03:54:13.613Z,2.70
2019-02-16T03:56:45.659Z,2.80
2019-02-16T03:59:19.334Z,2.80
2019-02-16T04:01:50.096Z,2.90
2019-02-16T04:04:20.928Z,2.90
2019-02-16T04:06:51.741Z,2.90
2019-02-16T04:09:22.409Z,2.90
2019-02-16T04:11:53.342Z,2.90
2019-02-16T04:14:24.184Z,2.90
2019-02-16T04:16:55.052Z,2.90
2019-02-16T04:19:26.179Z,2.90
2019-02-16T04:21:57.949Z,2.90
2019-02-16T04:24:29.031Z,2.90
2019-02-16T04:26:59.856Z,2.90
2019-02-16T04:29:30.759Z,3.00
2019-02-16T04:32:01.538Z,2.90
2019-02-16T04:34:32.387Z,2.90
2019-02-16T04:37:05.274Z,2.90
2019-02-16T04:39:36.521Z,2.90
2019-02-16T04:42:09.620Z,2.90
2019-02-16T04:44:41.667Z,2.80
2019-02-16T04:47:12.488Z,2.80
2019-02-16T04:49:43.559Z,2.80
2019-02-16T04:52:35.074Z,2.80
2019-02-16T04:55:05.899Z,2.80
2019-02-16T04:57:36.619Z,2.80
2019-02-16T05:00:08.207Z,2.70
2019-02-16T05:02:38.926Z,2.70
2019-02-16T05:05:09.867Z,2.70
2019-02-16T05:07:40.816Z,2.70
2019-02-16T05:10:11.746Z,2.70
2019-02-16T05:12:42.526Z,2.70
2019-02-16T05:15:13.222Z,2.70
2019-02-16T05:17:43.949Z,2.70
2019-02-16T05:20:16.489Z,2.70
2019-02-16T05:22:47.401Z,2.70
2019-02-16T05:25:18.125Z,2.70
2019-02-16T05:27:49.039Z,2.70
2019-02-16T05:30:19.827Z,2.70
2019-02-16T05:32:52.185Z,2.70
2019-02-16T05:35:23.280Z,2.70
2019-02-16T05:37:54.480Z,2.70
2019-02-16T05:40:25.200Z,2.70
2019-02-16T05:42:55.932Z,2.70
2019-02-16T05:45:29.136Z,2.60
2019-02-16T05:47:59.870Z,2.60
2019-02-16T05:50:32.439Z,2.60
2019-02-16T05:53:03.160Z,2.60
2019-02-16T05:55:34.012Z,2.50
2019-02-16T05:58:06.043Z,2.50
2019-02-16T06:00:37.019Z,2.50
2019-02-16T06:03:07.647Z,2.40
2019-02-16T06:05:38.241Z,2.40
2019-02-16T06:08:10.831Z,2.50
2019-02-16T06:10:42.549Z,2.50
2019-02-16T06:13:13.590Z,2.50
2019-02-16T06:15:45.862Z,2.50
2019-02-16T06:18:16.624Z,2.40
2019-02-16T06:20:47.606Z,2.40
2019-02-16T06:23:18.422Z,2.40
2019-02-16T06:25:49.378Z,2.40
2019-02-16T06:28:21.873Z,2.30
2019-02-16T06:30:53.775Z,2.30
2019-02-16T06:33:26.178Z,2.30
2019-02-16T06:36:02.324Z,2.30
2019-02-16T06:38:33.091Z,2.30
2019-02-16T06:41:05.543Z,2.40
2019-02-16T06:43:36.329Z,2.40
2019-02-16T06:46:08.499Z,2.40
2019-02-16T06:48:41.099Z,2.40
2019-02-16T06:51:12.198Z,2.40
2019-02-16T06:53:42.980Z,2.40
2019-02-16T06:56:31.517Z,2.50
2019-02-16T06:59:03.482Z,2.40
2019-02-16T07:01:34.756Z,2.40
2019-02-16T07:04:05.660Z,2.30
2019-02-16T07:06:36.470Z,2.40
2019-02-16T07:09:07.604Z,2.40
2019-02-16T07:11:39.872Z,2.50
2019-02-16T07:14:11.298Z,2.50
2019-02-16T07:17:03.665Z,2.50
2019-02-16T07:19:40.648Z,2.50
2019-02-16T07:22:11.709Z,2.60
2019-02-16T07:24:45.181Z,2.60
2019-02-16T07:27:16.016Z,2.60
2019-02-16T07:29:46.932Z,2.60
2019-02-16T07:32:20.406Z,2.60
2019-02-16T07:35:03.845Z,2.70
2019-02-16T07:37:37.013Z,2.70
2019-02-16T07:40:12.787Z,2.70
2019-02-16T07:42:51.698Z,2.80
2019-02-16T07:45:33.145Z,2.80
2019-02-16T07:48:25.914Z,2.90
2019-02-16T07:51:04.430Z,2.90
2019-02-16T07:53:46.585Z,2.90
2019-02-16T07:56:38.890Z,2.90
2019-02-16T07:59:15.771Z,2.90
2019-02-16T08:02:11.483Z,2.90
2019-02-16T08:04:52.804Z,2.80
2019-02-16T08:07:48.338Z,2.80
2019-02-16T08:10:44.219Z,2.80
2019-02-16T08:13:37.141Z,2.80
2019-02-16T08:16:26.640Z,2.80
2019-02-16T08:19:08.089Z,2.80
2019-02-16T08:21:56.725Z,2.70
2019-02-16T08:24:45.218Z,2.70
2019-02-16T08:27:35.990Z,2.70
2019-02-16T08:30:34.934Z,2.70
2019-02-16T08:33:23.234Z,2.70
2019-02-16T08:36:19.251Z,2.70
2019-02-16T08:39:12.859Z,2.80
2019-02-16T08:42:08.322Z,2.90
2019-02-16T08:44:48.293Z,2.90
2019-02-16T08:47:26.676Z,2.90
2019-02-16T08:50:08.232Z,3.00
2019-02-16T08:53:06.869Z,3.10
2019-02-16T08:55:59.703Z,3.10
2019-02-16T08:58:48.509Z,3.20
2019-02-16T09:01:48.654Z,3.20
2019-02-16T09:04:39.836Z,3.20
2019-02-16T09:07:29.322Z,3.30
2019-02-16T09:10:18.204Z,3.30
2019-02-16T09:12:53.687Z,3.40
2019-02-16T09:15:36.982Z,3.50
2019-02-16T09:18:35.727Z,3.60
2019-02-16T09:21:37.512Z,3.60
2019-02-16T09:24:29.067Z,3.70
2019-02-16T09:27:12.322Z,3.70
2019-02-16T09:30:08.140Z,3.80
2019-02-16T09:32:56.703Z,3.80
2019-02-16T09:35:55.465Z,3.80
2019-02-16T09:38:49.434Z,3.90
2019-02-16T09:41:44.804Z,3.90
2019-02-16T09:44:46.980Z,4.00
2019-02-16T09:47:45.487Z,4.00
2019-02-16T09:50:42.246Z,4.10
2019-02-16T09:53:31.944Z,4.10
2019-02-16T09:56:27.591Z,4.20
2019-02-16T09:59:15.924Z,4.30
2019-02-16T10:02:05.660Z,4.30
2019-02-16T10:04:54.283Z,4.30
2019-02-16T10:07:44.641Z,4.40
2019-02-16T10:10:26.910Z,4.40
2019-02-16T10:13:15.262Z,4.50
2019-02-16T10:16:00.407Z,4.60
2019-02-16T10:18:50.205Z,4.70
2019-02-16T10:21:44.207Z,4.70
2019-02-16T10:28:20.647Z,4.90
2019-02-16T10:31:19.453Z,5.00
2019-02-16T10:38:03.005Z,5.10
2019-02-16T10:41:11.516Z,5.20
2019-02-16T10:44:20.171Z,5.20
2019-02-16T10:47:28.706Z,5.30
2019-02-16T10:50:37.280Z,5.40
2019-02-16T10:53:45.887Z,5.40
2019-02-16T10:56:54.451Z,5.50
2019-02-16T11:00:02.973Z,5.50
2019-02-16T11:03:04.355Z,5.60
2019-02-16T11:05:52.655Z,5.60
2019-02-16T11:08:41.757Z,5.70
2019-02-16T11:11:43.113Z,5.80
2019-02-16T11:14:47.788Z,5.80
2019-02-16T11:18:10.876Z,5.80
2019-02-16T11:24:56.848Z,5.80
2019-02-16T11:27:57.776Z,5.90
2019-02-16T11:31:04.960Z,5.90
2019-02-16T11:34:05.897Z,6.00
2019-02-16T11:37:07.236Z,6.00
2019-02-16T11:40:08.899Z,6.10
2019-02-16T11:46:53.660Z,6.10
2019-02-16T11:50:16.488Z,6.10
2019-02-16T11:53:27.088Z,6.10
2019-02-16T11:56:29.022Z,6.10
2019-02-16T11:59:35.978Z,6.10
2019-02-16T12:02:39.781Z,6.10
2019-02-16T12:05:35.112Z,6.20
2019-02-16T12:08:39.434Z,6.20
2019-02-16T12:11:35.975Z,6.20
2019-02-16T12:21:38.494Z,6.30
2019-02-16T12:24:38.597Z,6.30
2019-02-16T12:27:40.018Z,6.30
2019-02-16T12:34:12.852Z,6.30
2019-02-16T12:37:14.241Z,6.40
2019-02-16T12:40:27.172Z,6.50
2019-02-16T12:43:37.256Z,6.50
2019-02-16T12:46:38.321Z,6.50
2019-02-16T12:49:39.200Z,6.50
2019-02-16T12:52:40.022Z,6.50
2019-02-16T12:55:53.121Z,6.50
2019-02-16T12:59:04.084Z,6.50
2019-02-16T13:02:04.748Z,6.60
2019-02-16T13:08:08.650Z,6.50
2019-02-16T13:11:09.584Z,6.50
2019-02-16T13:17:21.694Z,6.50
2019-02-16T13:20:10.602Z,6.50
2019-02-16T13:23:21.862Z,6.50
2019-02-16T13:26:29.180Z,6.50
2019-02-16T13:29:30.274Z,6.60
2019-02-16T13:32:31.205Z,6.60
2019-02-16T13:35:32.459Z,6.60
2019-02-16T13:38:36.236Z,6.70
2019-02-16T13:45:09.308Z,6.70
2019-02-16T13:47:46.417Z,6.70
2019-02-16T13:50:44.833Z,6.70
2019-02-16T13:53:32.913Z,6.70
2019-02-16T13:56:22.470Z,6.70
2019-02-16T13:59:21.713Z,6.70
2019-02-16T14:02:11.458Z,6.70
2019-02-16T14:05:16.281Z,6.70
2019-02-16T14:07:57.740Z,6.70
2019-02-16T14:10:51.096Z,6.70
2019-02-16T14:13:52.487Z,6.80
2019-02-16T14:16:35.107Z,6.80
2019-02-16T14:19:05.858Z,6.80
2019-02-16T14:21:36.475Z,6.80
2019-02-16T14:24:07.109Z,6.80
2019-02-16T14:26:37.726Z,6.80
2019-02-16T14:29:08.354Z,6.80
2019-02-16T14:31:39.030Z,6.80
2019-02-16T14:34:09.652Z,6.80
2019-02-16T14:52:41.078Z,6.90
2019-02-16T14:55:54.254Z,6.90
2019-02-16T14:58:51.127Z,6.90
2019-02-16T15:01:40.848Z,6.90
2019-02-16T15:04:23.461Z,6.90
2019-02-16T15:07:05.444Z,7.00
2019-02-16T15:09:47.856Z,7.00
2019-02-16T15:12:30.187Z,7.00
2019-02-16T15:15:12.693Z,7.00
2019-02-16T15:17:54.611Z,7.00
2019-02-16T15:20:37.015Z,6.90
2019-02-16T15:23:19.395Z,6.90
2019-02-16T15:26:01.591Z,6.90
2019-02-16T15:28:43.871Z,6.90
2019-02-16T15:31:25.971Z,6.90
2019-02-16T15:34:08.691Z,6.90
2019-02-16T15:36:51.083Z,6.90
2019-02-16T15:39:33.760Z,6.90
2019-02-16T15:42:15.660Z,6.90
2019-02-16T15:44:58.248Z,6.90
2019-02-16T15:47:40.612Z,6.90
2019-02-16T15:50:22.692Z,6.90
2019-02-16T15:53:04.905Z,6.90
2019-02-16T15:55:47.457Z,6.90
2019-02-16T15:58:29.857Z,6.90
2019-02-16T16:01:11.885Z,6.90
2019-02-16T16:03:53.997Z,6.90
2019-02-16T16:06:36.116Z,6.90
2019-02-16T16:09:43.292Z,6.90
2019-02-16T16:12:44.448Z,6.90
2019-02-16T16:15:45.838Z,6.90
2019-02-16T16:19:01.818Z,6.80
2019-02-16T16:28:41.449Z,6.80
2019-02-16T16:31:42.736Z,6.70
2019-02-16T16:34:43.763Z,6.70
2019-02-16T16:40:47.520Z,6.50
2019-02-16T16:43:43.621Z,6.50
2019-02-16T16:50:00.574Z,6.40
2019-02-16T16:53:01.615Z,6.30
2019-02-16T16:56:02.839Z,6.30
2019-02-16T16:59:18.541Z,6.20
2019-02-16T17:02:38.097Z,6.10
2019-02-16T17:05:48.861Z,6.00
2019-02-16T17:08:50.575Z,6.00
2019-02-16T17:11:57.819Z,6.00
2019-02-16T17:14:49.656Z,6.00
2019-02-16T17:17:34.233Z,6.00
2019-02-16T17:20:13.121Z,6.00
2019-02-16T17:23:08.671Z,6.00
2019-02-16T17:26:04.311Z,5.90
2019-02-16T17:28:53.032Z,5.90
2019-02-16T17:31:42.624Z,5.90
2019-02-16T17:34:31.020Z,5.80
2019-02-16T17:37:20.545Z,5.80
2019-02-16T17:40:16.233Z,5.70
2019-02-16T17:43:09.052Z,5.70
2019-02-16T17:45:47.804Z,5.70
2019-02-16T17:48:35.987Z,5.70
2019-02-16T17:51:15.455Z,5.80
2019-02-16T17:54:08.451Z,5.80
2019-02-16T17:57:07.606Z,5.80
2019-02-16T17:59:54.097Z,5.80
2019-02-16T18:02:43.676Z,5.80
2019-02-16T18:05:22.394Z,5.70
2019-02-16T18:08:09.886Z,5.70
2019-02-16T18:11:14.387Z,5.70
2019-02-16T18:14:23.272Z,5.70
2019-02-16T18:17:33.897Z,5.60
2019-02-16T18:20:51.589Z,5.60
2019-02-16T18:27:34.089Z,5.50
2019-02-16T18:30:42.926Z,5.50
2019-02-16T18:33:51.780Z,5.50
2019-02-16T18:37:00.332Z,5.50
2019-02-16T18:40:08.897Z,5.50
2019-02-16T18:43:17.423Z,5.50
2019-02-16T18:46:25.935Z,5.50
2019-02-16T18:49:25.352Z,5.50
2019-02-16T18:52:33.876Z,5.50
2019-02-16T18:55:42.811Z,5.40
2019-02-16T18:58:51.329Z,5.40
2019-02-16T19:02:11.400Z,5.40
2019-02-16T19:05:21.951Z,5.40
2019-02-16T19:08:22.923Z,5.40
2019-02-16T19:11:24.086Z,5.40
2019-02-16T19:14:25.328Z,5.30
2019-02-16T19:17:26.839Z,5.20
2019-02-16T19:20:28.223Z,5.20
2019-02-16T19:23:29.684Z,5.10
2019-02-16T19:26:21.504Z,5.10
2019-02-16T19:29:20.292Z,5.00
2019-02-16T19:32:06.581Z,5.00
2019-02-16T19:34:56.141Z,5.00
2019-02-16T19:37:32.809Z,5.00
2019-02-16T19:40:34.346Z,5.00
2019-02-16T19:43:20.784Z,5.00
2019-02-16T19:46:16.463Z,4.90
2019-02-16T19:49:06.018Z,5.00
2019-02-16T19:51:54.264Z,5.00
2019-02-16T19:54:47.088Z,5.00
2019-02-16T19:57:29.373Z,5.00
2019-02-16T20:00:17.562Z,5.00
2019-02-16T20:03:06.583Z,5.00
2019-02-16T20:05:59.795Z,5.00
2019-02-16T20:08:44.709Z,4.90
2019-02-16T20:11:25.454Z,4.90
2019-02-16T20:14:13.994Z,4.90
2019-02-16T20:17:02.151Z,4.90
2019-02-16T20:20:06.962Z,4.90
2019-02-16T20:23:05.868Z,4.90
2019-02-16T20:25:46.922Z,4.90
2019-02-16T20:28:35.144Z,4.90
2019-02-16T20:31:14.625Z,4.80
2019-02-16T20:34:19.866Z,4.80
2019-02-16T20:37:18.961Z,4.80
2019-02-16T20:39:57.239Z,4.80
2019-02-16T20:42:43.524Z,4.80
2019-02-16T20:45:19.088Z,4.80
2019-02-16T20:48:11.472Z,4.70
2019-02-16T20:51:07.099Z,4.70
2019-02-16T20:54:08.659Z,4.70
2019-02-16T20:57:01.109Z,4.70
2019-02-16T20:59:59.701Z,4.70
2019-02-16T21:02:52.223Z,4.60
2019-02-16T21:05:40.320Z,4.60
2019-02-16T21:08:31.842Z,4.50
2019-02-16T21:11:19.820Z,4.50
2019-02-16T21:13:56.970Z,4.50
2019-02-16T21:17:04.894Z,4.40
2019-02-16T21:19:52.896Z,4.40
2019-02-16T21:22:44.978Z,4.50
2019-02-16T21:25:22.871Z,4.40
2019-02-16T21:28:18.590Z,4.40
2019-02-16T21:31:13.634Z,4.40
2019-02-16T21:33:49.305Z,4.40
2019-02-16T21:36:33.747Z,4.40
2019-02-16T21:39:34.944Z,4.40
2019-02-16T21:42:30.218Z,4.40
2019-02-16T21:45:26.547Z,4.40
2019-02-16T21:48:14.774Z,4.40
2019-02-16T21:51:07.390Z,4.30
2019-02-16T21:53:53.076Z,4.30
2019-02-16T21:56:50.266Z,4.30
2019-02-16T21:59:39.844Z,4.30
2019-02-16T22:02:35.158Z,4.20
2019-02-16T22:05:21.148Z,4.20
2019-02-16T22:08:10.815Z,4.20
2019-02-16T22:11:02.094Z,4.20
2019-02-16T22:13:32.737Z,4.20
2019-02-16T22:16:03.354Z,4.20
2019-02-16T22:18:34.029Z,4.20
2019-02-16T22:21:04.865Z,4.20
2019-02-16T22:23:35.575Z,4.20
2019-02-16T22:26:06.304Z,4.20
2019-02-16T22:28:37.632Z,4.10
2019-02-16T22:31:08.275Z,4.10
2019-02-16T22:33:38.918Z,4.10
2019-02-16T22:36:09.588Z,4.10
2019-02-16T22:38:40.702Z,4.10
2019-02-16T22:41:11.412Z,4.10
2019-02-16T22:43:41.972Z,4.00
2019-02-16T22:46:12.657Z,4.00
2019-02-16T22:48:43.336Z,4.00
2019-02-16T22:51:14.073Z,3.90
2019-02-16T22:53:44.866Z,4.00
2019-02-16T22:56:18.071Z,4.00
2019-02-16T22:58:49.188Z,4.00
2019-02-16T23:01:20.124Z,4.00
2019-02-16T23:03:50.875Z,3.90
2019-02-16T23:06:21.562Z,3.90
2019-02-16T23:08:52.193Z,3.90
2019-02-16T23:11:22.862Z,3.90
2019-02-16T23:13:53.577Z,3.90
2019-02-16T23:16:24.504Z,3.80
2019-02-16T23:18:55.161Z,3.80
2019-02-16T23:21:26.179Z,3.80
2019-02-16T23:23:56.937Z,3.80
2019-02-16T23:26:27.590Z,3.90
2019-02-16T23:28:58.278Z,3.80
2019-02-16T23:31:28.897Z,3.80
2019-02-16T23:33:59.566Z,3.80
2019-02-16T23:36:30.175Z,3.80
2019-02-16T23:39:00.840Z,3.80
2019-02-16T23:41:31.480Z,3.70
2019-02-16T23:44:02.084Z,3.70
2019-02-16T23:46:32.831Z,3.70
2019-02-16T23:49:03.892Z,3.70
2019-02-16T23:51:34.573Z,3.60
2019-02-16T23:54:05.212Z,3.60
2019-02-16T23:56:35.883Z,3.60
2019-02-16T23:59:06.915Z,3.60
